Observation data for Northfield on 10/18/2019      Previous  Date       Current Mesonet Observations  Soil Data  Daily Summary Page  Observations in Plain Language
KNOR 180500Z 17013G18KT 16/M01 A2983 RMK A01 T01631009  RH  031%=      5-min Rain = 0
KNOR 180505Z 17013G18KT 16/M01 A2983 RMK A01 T01611008  RH  032%=      5-min Rain = 0
KNOR 180510Z 17013KT 16/M01 A2983 RMK A01 T01601007  RH  032%=      5-min Rain = 0
KNOR 180515Z 17014KT 16/M01 A2982 RMK A01 T01601007  RH  032%=      5-min Rain = 0
KNOR 180520Z 17014KT 16/M01 A2982 RMK A01 T01591007  RH  033%=      5-min Rain = 0
KNOR 180525Z 17015KT 16/M01 A2982 RMK A01 T01591007  RH  033%=      5-min Rain = 0
KNOR 180530Z 17014KT 16/M01 A2982 RMK A01 T01581006  RH  033%=      5-min Rain = 0
KNOR 180535Z 17014KT 16/M01 A2982 RMK A01 T01581007  RH  033%=      5-min Rain = 0
KNOR 180540Z 17015G20KT 16/M01 A2982 RMK A01 T01581007  RH  033%=      5-min Rain = 0
KNOR 180545Z 17014KT 16/M01 A2982 RMK A01 T01571007  RH  033%=      5-min Rain = 0
KNOR 180550Z 17014G20KT 16/M01 A2982 RMK A01 T01571007  RH  033%=      5-min Rain = 0
KNOR 180555Z 17013KT 15/M01 A2982 RMK A01 T01541007  RH  034%=      5-min Rain = 0
KNOR 180600Z 17013G18KT 15/M01 A2982 RMK A01 T01531007  RH  034%=      5-min Rain = 0
KNOR 180605Z 17013KT 15/M01 A2982 RMK A01 T01511007  RH  034%=      5-min Rain = 0
KNOR 180610Z 17012KT 15/M01 A2982 RMK A01 T01491006  RH  035%=      5-min Rain = 0
KNOR 180615Z 17012KT 15/M01 A2982 RMK A01 T01481006  RH  035%=      5-min Rain = 0
KNOR 180620Z 17012KT 15/M01 A2982 RMK A01 T01471006  RH  035%=      5-min Rain = 0
KNOR 180625Z 17012KT 15/M01 A2982 RMK A01 T01461006  RH  036%=      5-min Rain = 0
KNOR 180630Z 17012KT 15/M01 A2982 RMK A01 T01461006  RH  036%=      5-min Rain = 0
KNOR 180635Z 17013KT 15/M01 A2981 RMK A01 T01461006  RH  036%=      5-min Rain = 0
KNOR 180640Z 17012KT 15/M01 A2981 RMK A01 T01451006  RH  036%=      5-min Rain = 0
KNOR 180645Z 18012KT 15/M01 A2981 RMK A01 T01451005  RH  036%=      5-min Rain = 0
KNOR 180650Z 18011KT 15/M01 A2981 RMK A01 T01461005  RH  036%=      5-min Rain = 0
KNOR 180655Z 18011KT 15/M00 A2981 RMK A01 T01481004  RH  036%=      5-min Rain = 0
KNOR 180700Z 18013KT 15/M00 A2981 RMK A01 T01501004  RH  035%=      5-min Rain = 0
KNOR 180705Z 18013KT 15/M00 A2981 RMK A01 T01521004  RH  035%=      5-min Rain = 0
KNOR 180710Z 18012G17KT 15/M00 A298 RMK A01 T01521003  RH  035%=      5-min Rain = 0
KNOR 180715Z 18014G19KT 15/M00 A298 RMK A01 T01531003  RH  035%=      5-min Rain = 0
KNOR 180720Z 18013KT 15/M00 A298 RMK A01 T01531003  RH  035%=      5-min Rain = 0
KNOR 180725Z 18013KT 15/M00 A298 RMK A01 T01531003  RH  035%=      5-min Rain = 0
KNOR 180730Z 17014G19KT 15/M00 A2979 RMK A01 T01531003  RH  035%=      5-min Rain = 0
KNOR 180735Z 19011G16KT 15/M00 A298 RMK A01 T01521003  RH  035%=      5-min Rain = 0
KNOR 180740Z 21010KT 15/M00 A2981 RMK A01 T01501003  RH  036%=      5-min Rain = 0
KNOR 180745Z 21008KT 15/M00 A2981 RMK A01 T01471002  RH  036%=      5-min Rain = 0
KNOR 180750Z 21007KT 14/M00 A2981 RMK A01 T01421002  RH  038%=      5-min Rain = 0
KNOR 180755Z 20007KT 14/M00 A2981 RMK A01 T01421002  RH  038%=      5-min Rain = 0
KNOR 180800Z 21008KT 14/M00 A2981 RMK A01 T01391001  RH  038%=      5-min Rain = 0
KNOR 180805Z 20008KT 14/M00 A2981 RMK A01 T01401001  RH  039%=      5-min Rain = 0
KNOR 180810Z 19009KT 14/M00 A298 RMK A01 T01411001  RH  038%=      5-min Rain = 0
KNOR 180815Z 19008KT 14/M00 A298 RMK A01 T01411001  RH  038%=      5-min Rain = 0
KNOR 180820Z 19009KT 14/M00 A2979 RMK A01 T01431001  RH  038%=      5-min Rain = 0
KNOR 180825Z 19010KT 15/M00 A2979 RMK A01 T01451002  RH  037%=      5-min Rain = 0
KNOR 180830Z 19010KT 15/M00 A2979 RMK A01 T01471003  RH  036%=      5-min Rain = 0
KNOR 180835Z 19011KT 15/M00 A2979 RMK A01 T01481003  RH  036%=      5-min Rain = 0
KNOR 180840Z 20011G18KT 15/M00 A2979 RMK A01 T01481003  RH  036%=      5-min Rain = 0
KNOR 180845Z 20011KT 15/M00 A2979 RMK A01 T01481003  RH  036%=      5-min Rain = 0
KNOR 180850Z 20010KT 15/M00 A2979 RMK A01 T01471003  RH  036%=      5-min Rain = 0
KNOR 180855Z 20009G14KT 15/M00 A2979 RMK A01 T01461003  RH  037%=      5-min Rain = 0
KNOR 180900Z 21009KT 15/M00 A2979 RMK A01 T01451002  RH  037%=      5-min Rain = 0
KNOR 180905Z 20008KT 14/M00 A2978 RMK A01 T01441002  RH  037%=      5-min Rain = 0
KNOR 180910Z 20008KT 14/M00 A2978 RMK A01 T01431001  RH  038%=      5-min Rain = 0
KNOR 180915Z 20007KT 14/00 A2978 RMK A01 T01410000  RH  039%=      5-min Rain = 0
KNOR 180920Z 20007KT 14/00 A2978 RMK A01 T01410002  RH  039%=      5-min Rain = 0
KNOR 180925Z 21007KT 14/00 A2978 RMK A01 T01430004  RH  039%=      5-min Rain = 0
KNOR 180930Z 21007KT 14/01 A2978 RMK A01 T01440007  RH  040%=      5-min Rain = 0
KNOR 180935Z 20006KT 14/01 A2978 RMK A01 T01440009  RH  040%=      5-min Rain = 0
KNOR 180940Z 20005KT 14/01 A2978 RMK A01 T01440011  RH  041%=      5-min Rain = 0
KNOR 180945Z 19004KT 14/01 A2978 RMK A01 T01420012  RH  042%=      5-min Rain = 0
KNOR 180950Z 18003KT 14/01 A2978 RMK A01 T01410012  RH  042%=      5-min Rain = 0
KNOR 180955Z 17003KT 14/01 A2978 RMK A01 T01410013  RH  042%=      5-min Rain = 0
KNOR 181000Z 17004KT 14/01 A2977 RMK A01 T01400014  RH  043%=      5-min Rain = 0
KNOR 181005Z 18006KT 14/02 A2977 RMK A01 T01410017  RH  044%=      5-min Rain = 0
KNOR 181010Z 18006KT 14/02 A2977 RMK A01 T01380018  RH  045%=      5-min Rain = 0
KNOR 181015Z 18008KT 14/02 A2977 RMK A01 T01390021  RH  046%=      5-min Rain = 0
KNOR 181020Z 18008KT 14/02 A2977 RMK A01 T01390022  RH  046%=      5-min Rain = 0
KNOR 181025Z 18008KT 14/02 A2977 RMK A01 T01350023  RH  047%=      5-min Rain = 0
KNOR 181030Z 17008KT 13/02 A2977 RMK A01 T01290021  RH  049%=      5-min Rain = 0
KNOR 181035Z 17008KT 13/02 A2977 RMK A01 T01250020  RH  049%=      5-min Rain = 0
KNOR 181040Z 17007KT 12/02 A2977 RMK A01 T01240020  RH  050%=      5-min Rain = 0
KNOR 181045Z 17007KT 12/02 A2977 RMK A01 T01230020  RH  050%=      5-min Rain = 0
KNOR 181050Z 17007KT 12/02 A2976 RMK A01 T01220020  RH  051%=      5-min Rain = 0
KNOR 181055Z 17007KT 12/02 A2977 RMK A01 T01220021  RH  051%=      5-min Rain = 0
KNOR 181100Z 17006KT 12/02 A2977 RMK A01 T01220021  RH  051%=      5-min Rain = 0
KNOR 181105Z 18006KT 12/02 A2977 RMK A01 T01190020  RH  052%=      5-min Rain = 0
KNOR 181110Z 19006KT 12/02 A2977 RMK A01 T01190021  RH  052%=      5-min Rain = 0
KNOR 181115Z 18007KT 12/02 A2977 RMK A01 T01200023  RH  052%=      5-min Rain = 0
KNOR 181120Z 17006KT 12/02 A2977 RMK A01 T01210024  RH  052%=      5-min Rain = 0
KNOR 181125Z 16005KT 12/03 A2977 RMK A01 T01190025  RH  053%=      5-min Rain = 0
KNOR 181130Z 15005KT 12/03 A2977 RMK A01 T01180026  RH  054%=      5-min Rain = 0
KNOR 181135Z 15005KT 12/03 A2977 RMK A01 T01190026  RH  054%=      5-min Rain = 0
KNOR 181140Z 19005KT 12/03 A2978 RMK A01 T01190027  RH  054%=      5-min Rain = 0
KNOR 181145Z 19007KT 12/03 A2978 RMK A01 T01150028  RH  056%=      5-min Rain = 0
KNOR 181150Z 18007KT 12/03 A2978 RMK A01 T01160032  RH  057%=      5-min Rain = 0
KNOR 181155Z 18007KT 12/04 A2978 RMK A01 T01170038  RH  060%=      5-min Rain = 0
KNOR 181200Z 18007KT 12/04 A2978 RMK A01 T01200042  RH  060%=      5-min Rain = 0
KNOR 181205Z 18007KT 12/04 A2978 RMK A01 T01210043  RH  060%=      5-min Rain = 0
KNOR 181210Z 17007KT 12/04 A2978 RMK A01 T01220043  RH  060%=      5-min Rain = 0
KNOR 181215Z 17006KT 12/04 A2978 RMK A01 T01210044  RH  060%=      5-min Rain = 0
KNOR 181220Z 17005KT 12/05 A2978 RMK A01 T01220045  RH  061%=      5-min Rain = 0
KNOR 181225Z 17005KT 12/05 A2978 RMK A01 T01220046  RH  061%=      5-min Rain = 0
KNOR 181230Z 17006KT 12/05 A2978 RMK A01 T01210045  RH  061%=      5-min Rain = 0
KNOR 181235Z 18007KT 12/05 A2978 RMK A01 T01190045  RH  062%=      5-min Rain = 0
KNOR 181240Z 18007KT 12/05 A2978 RMK A01 T01210046  RH  062%=      5-min Rain = 0
KNOR 181245Z 18006KT 12/05 A2978 RMK A01 T01220048  RH  062%=      5-min Rain = 0
KNOR 181250Z 17007KT 12/05 A2978 RMK A01 T01210048  RH  062%=      5-min Rain = 0
KNOR 181255Z 17008KT 12/05 A2977 RMK A01 T01210049  RH  063%=      5-min Rain = 0
KNOR 181300Z 17007KT 12/05 A2977 RMK A01 T01240050  RH  062%=      5-min Rain = 0
KNOR 181305Z 17006KT 13/05 A2977 RMK A01 T01250051  RH  062%=      5-min Rain = 0
KNOR 181310Z 17006KT 13/05 A2977 RMK A01 T01290054  RH  062%=      5-min Rain = 0
KNOR 181315Z 16006KT 13/06 A2977 RMK A01 T01340056  RH  060%=      5-min Rain = 0
KNOR 181320Z 16006KT 14/06 A2977 RMK A01 T01370055  RH  059%=      5-min Rain = 0
KNOR 181325Z 14006KT 14/06 A2977 RMK A01 T01380056  RH  059%=      5-min Rain = 0
KNOR 181330Z 13005KT 14/05 A2978 RMK A01 T01360053  RH  058%=      5-min Rain = 0
KNOR 181335Z 12005KT 14/05 A2978 RMK A01 T01350050  RH  058%=      5-min Rain = 0
KNOR 181340Z 12005KT 14/05 A2978 RMK A01 T01360050  RH  057%=      5-min Rain = 0
KNOR 181345Z 12006KT 14/05 A2978 RMK A01 T01380050  RH  057%=      5-min Rain = 0
KNOR 181350Z 12006KT 14/05 A2977 RMK A01 T01380048  RH  056%=      5-min Rain = 0
KNOR 181355Z 12006KT 14/05 A2977 RMK A01 T01400049  RH  055%=      5-min Rain = 0
KNOR 181400Z 12006KT 15/05 A2977 RMK A01 T01450050  RH  054%=      5-min Rain = 0
KNOR 181405Z 12006KT 15/05 A2977 RMK A01 T01480051  RH  053%=      5-min Rain = 0
KNOR 181410Z 12006KT 15/05 A2977 RMK A01 T01500051  RH  053%=      5-min Rain = 0
KNOR 181415Z 12005KT 15/05 A2977 RMK A01 T01530051  RH  052%=      5-min Rain = 0
KNOR 181420Z 12005KT 16/05 A2978 RMK A01 T01570053  RH  051%=      5-min Rain = 0
KNOR 181425Z 12006KT 16/06 A2978 RMK A01 T01610055  RH  050%=      5-min Rain = 0
KNOR 181430Z 11005KT 16/05 A2978 RMK A01 T01630053  RH  049%=      5-min Rain = 0
KNOR 181435Z 13004KT 17/05 A2977 RMK A01 T01690054  RH  048%=      5-min Rain = 0
KNOR 181440Z 14005KT 17/06 A2977 RMK A01 T01720056  RH  048%=      5-min Rain = 0
KNOR 181445Z 15006KT 18/07 A2977 RMK A01 T01790071  RH  051%=      5-min Rain = 0
KNOR 181450Z 16006KT 18/08 A2977 RMK A01 T01840077  RH  051%=      5-min Rain = 0
KNOR 181455Z 15007KT 19/08 A2977 RMK A01 T01850078  RH  051%=      5-min Rain = 0
KNOR 181500Z 16007KT 19/08 A2977 RMK A01 T01880080  RH  051%=      5-min Rain = 0
KNOR 181505Z 17007KT 19/08 A2977 RMK A01 T01920081  RH  050%=      5-min Rain = 0
KNOR 181510Z 16008KT 20/08 A2976 RMK A01 T01950081  RH  049%=      5-min Rain = 0
KNOR 181515Z 17008KT 20/08 A2976 RMK A01 T01990082  RH  048%=      5-min Rain = 0
KNOR 181520Z 17009KT 20/08 A2976 RMK A01 T02030084  RH  048%=      5-min Rain = 0
KNOR 181525Z 17007KT 21/09 A2976 RMK A01 T02060087  RH  048%=      5-min Rain = 0
KNOR 181530Z 18007KT 22/09 A2976 RMK A01 T02150090  RH  046%=      5-min Rain = 0
KNOR 181535Z 19009KT 22/09 A2975 RMK A01 T02190093  RH  046%=      5-min Rain = 0
KNOR 181540Z 18010KT 23/10 A2975 RMK A01 T02270095  RH  044%=      5-min Rain = 0
KNOR 181545Z 17010KT 23/10 A2975 RMK A01 T02300096  RH  044%=      5-min Rain = 0
KNOR 181550Z 17010KT 23/10 A2975 RMK A01 T02340095  RH  042%=      5-min Rain = 0
KNOR 181555Z 16010KT 24/10 A2974 RMK A01 T02360095  RH  042%=      5-min Rain = 0
KNOR 181600Z 16010G16KT 24/10 A2974 RMK A01 T02410095  RH  041%=      5-min Rain = 0
KNOR 181605Z 17009KT 24/10 A2974 RMK A01 T02400095  RH  041%=      5-min Rain = 0
KNOR 181610Z 17010KT 24/10 A2974 RMK A01 T02440095  RH  040%=      5-min Rain = 0
KNOR 181615Z 18011G16KT 25/09 A2974 RMK A01 T02450094  RH  040%=      5-min Rain = 0
KNOR 181620Z 18009KT 25/10 A2974 RMK A01 T02470095  RH  039%=      5-min Rain = 0
KNOR 181625Z 17011KT 25/09 A2974 RMK A01 T02480094  RH  039%=      5-min Rain = 0
KNOR 181630Z 19008G13KT 25/10 A2973 RMK A01 T02510096  RH  039%=      5-min Rain = 0
KNOR 181635Z 18012G17KT 26/10 A2973 RMK A01 T02550095  RH  037%=      5-min Rain = 0
KNOR 181640Z 18012KT 25/09 A2973 RMK A01 T02530094  RH  037%=      5-min Rain = 0
KNOR 181645Z 17011KT 26/09 A2973 RMK A01 T02560093  RH  037%=      5-min Rain = 0
KNOR 181650Z 17014KT 26/09 A2973 RMK A01 T02570092  RH  036%=      5-min Rain = 0
KNOR 181655Z 18013G19KT 26/09 A2973 RMK A01 T02580092  RH  036%=      5-min Rain = 0
KNOR 181700Z 18012KT 26/09 A2973 RMK A01 T02580092  RH  036%=      5-min Rain = 0
KNOR 181705Z 19013KT 26/09 A2972 RMK A01 T02590092  RH  036%=      5-min Rain = 0
KNOR 181710Z 17012KT 26/09 A2972 RMK A01 T02570092  RH  036%=      5-min Rain = 0
KNOR 181715Z 16013KT 26/09 A2972 RMK A01 T02600093  RH  036%=      5-min Rain = 0
KNOR 181720Z 16012KT 26/09 A2972 RMK A01 T02610094  RH  036%=      5-min Rain = 0
KNOR 181725Z 17012G17KT 27/09 A2972 RMK A01 T02660094  RH  035%=      5-min Rain = 0
KNOR 181730Z 17013G20KT 27/09 A2971 RMK A01 T02650093  RH  035%=      5-min Rain = 0
KNOR 181735Z 17013G19KT 26/09 A2971 RMK A01 T02620094  RH  036%=      5-min Rain = 0
KNOR 181740Z 17014G19KT 27/09 A2971 RMK A01 T02650094  RH  035%=      5-min Rain = 0
KNOR 181745Z 17014G19KT 27/10 A297 RMK A01 T02700095  RH  034%=      5-min Rain = 0
KNOR 181750Z 16015G20KT 27/09 A297 RMK A01 T02680094  RH  034%=      5-min Rain = 0
KNOR 181755Z 16016G22KT 27/09 A2969 RMK A01 T02670093  RH  034%=      5-min Rain = 0
KNOR 181800Z 16015G20KT 27/09 A2969 RMK A01 T02690092  RH  034%=      5-min Rain = 0
KNOR 181805Z 16014G20KT 27/09 A2969 RMK A01 T02710093  RH  034%=      5-min Rain = 0
KNOR 181810Z 18012G18KT 28/10 A2969 RMK A01 T02770095  RH  033%=      5-min Rain = 0
KNOR 181815Z 17013G19KT 28/09 A2968 RMK A01 T02780094  RH  033%=      5-min Rain = 0
KNOR 181820Z 17014G21KT 28/09 A2968 RMK A01 T02770093  RH  033%=      5-min Rain = 0
KNOR 181825Z 18015G20KT 28/09 A2968 RMK A01 T02840094  RH  031%=      5-min Rain = 0
KNOR 181830Z 17014G23KT 29/09 A2968 RMK A01 T02870094  RH  031%=      5-min Rain = 0
KNOR 181835Z 18014G21KT 28/09 A2967 RMK A01 T02830093  RH  032%=      5-min Rain = 0
KNOR 181840Z 17014KT 29/10 A2967 RMK A01 T02860095  RH  031%=      5-min Rain = 0
KNOR 181845Z 18016G22KT 29/09 A2967 RMK A01 T02860093  RH  031%=      5-min Rain = 0
KNOR 181850Z 19014G20KT 28/09 A2966 RMK A01 T02780092  RH  032%=      5-min Rain = 0
KNOR 181855Z 19014G19KT 28/09 A2966 RMK A01 T02840093  RH  031%=      5-min Rain = 0
KNOR 181900Z 20013G18KT 28/09 A2966 RMK A01 T02840092  RH  031%=      5-min Rain = 0
KNOR 181905Z 19012G20KT 29/10 A2965 RMK A01 T02930095  RH  030%=      5-min Rain = 0
KNOR 181910Z 18012G19KT 28/09 A2965 RMK A01 T02820092  RH  031%=      5-min Rain = 0
KNOR 181915Z 18012G18KT 28/09 A2964 RMK A01 T02770093  RH  033%=      5-min Rain = 0
KNOR 181920Z 18014G20KT 28/09 A2963 RMK A01 T02790094  RH  032%=      5-min Rain = 0
KNOR 181925Z 19015G20KT 28/09 A2963 RMK A01 T02780093  RH  032%=      5-min Rain = 0
KNOR 181930Z 19012KT 28/09 A2963 RMK A01 T02840094  RH  031%=      5-min Rain = 0
KNOR 181935Z 18014G20KT 29/10 A2963 RMK A01 T02870095  RH  031%=      5-min Rain = 0
KNOR 181940Z 18016G22KT 29/10 A2963 RMK A01 T02910095  RH  030%=      5-min Rain = 0
KNOR 181945Z 19012KT 30/10 A2963 RMK A01 T03020097  RH  029%=      5-min Rain = 0
KNOR 181950Z 19015G22KT 30/10 A2962 RMK A01 T02970096  RH  030%=      5-min Rain = 0
KNOR 181955Z 21014G20KT 29/10 A2962 RMK A01 T02870096  RH  031%=      5-min Rain = 0
KNOR 182000Z 21011G19KT 29/10 A2962 RMK A01 T02900099  RH  031%=      5-min Rain = 0
KNOR 182005Z 21014G19KT 29/10 A2962 RMK A01 T02900098  RH  031%=      5-min Rain = 0
KNOR 182010Z 20015G21KT 29/10 A2962 RMK A01 T02940099  RH  031%=      5-min Rain = 0
KNOR 182015Z 22016G22KT 29/10 A2962 RMK A01 T02930097  RH  030%=      5-min Rain = 0
KNOR 182020Z 20014KT 29/10 A2962 RMK A01 T02890097  RH  031%=      5-min Rain = 0
KNOR 182025Z 21013G21KT 30/10 A2962 RMK A01 T02960098  RH  030%=      5-min Rain = 0
KNOR 182030Z 20011KT 30/10 A2961 RMK A01 T03000099  RH  030%=      5-min Rain = 0
KNOR 182035Z 20012G18KT 30/10 A2961 RMK A01 T03030099  RH  029%=      5-min Rain = 0
KNOR 182040Z 18010G17KT 30/10 A2961 RMK A01 T03020098  RH  029%=      5-min Rain = 0
KNOR 182045Z 19010G15KT 31/10 A296 RMK A01 T03050101  RH  029%=      5-min Rain = 0
KNOR 182050Z 18013G18KT 30/10 A296 RMK A01 T03030098  RH  029%=      5-min Rain = 0
KNOR 182055Z 19011KT 30/10 A296 RMK A01 T03040099  RH  029%=      5-min Rain = 0
KNOR 182100Z 19009G14KT 31/10 A296 RMK A01 T03060100  RH  029%=      5-min Rain = 0
KNOR 182105Z 19011G17KT 31/10 A2959 RMK A01 T03060099  RH  029%=      5-min Rain = 0
KNOR 182110Z 17012KT 30/10 A2959 RMK A01 T03040098  RH  029%=      5-min Rain = 0
KNOR 182115Z 18011G17KT 31/10 A2959 RMK A01 T03050099  RH  029%=      5-min Rain = 0
KNOR 182120Z 18009KT 31/10 A2958 RMK A01 T03060100  RH  029%=      5-min Rain = 0
KNOR 182125Z 18010G19KT 31/10 A2958 RMK A01 T03100100  RH  028%=      5-min Rain = 0
KNOR 182130Z 16010G15KT 31/10 A2958 RMK A01 T03090101  RH  029%=      5-min Rain = 0
KNOR 182135Z 17013KT 31/10 A2958 RMK A01 T03090100  RH  028%=      5-min Rain = 0
KNOR 182140Z 17013KT 31/10 A2958 RMK A01 T03100100  RH  028%=      5-min Rain = 0
KNOR 182145Z 17013G19KT 31/10 A2958 RMK A01 T03100099  RH  028%=      5-min Rain = 0
KNOR 182150Z 18011KT 31/10 A2957 RMK A01 T03120099  RH  028%=      5-min Rain = 0
KNOR 182155Z 17014G19KT 31/10 A2957 RMK A01 T03110098  RH  028%=      5-min Rain = 0
KNOR 182200Z 17015G20KT 31/10 A2957 RMK A01 T03120098  RH  028%=      5-min Rain = 0
KNOR 182205Z 18011G17KT 31/10 A2957 RMK A01 T03120098  RH  028%=      5-min Rain = 0
KNOR 182210Z 18013G18KT 31/10 A2957 RMK A01 T03110098  RH  028%=      5-min Rain = 0
KNOR 182215Z 18014G20KT 31/10 A2957 RMK A01 T03060098  RH  029%=      5-min Rain = 0
KNOR 182220Z 18017KT 31/10 A2956 RMK A01 T03100097  RH  028%=      5-min Rain = 0
KNOR 182225Z 18015G20KT 30/10 A2956 RMK A01 T03040097  RH  029%=      5-min Rain = 0
KNOR 182230Z 18015G21KT 31/10 A2956 RMK A01 T03060097  RH  028%=      5-min Rain = 0
KNOR 182235Z 18012G17KT 31/10 A2956 RMK A01 T03090098  RH  028%=      5-min Rain = 0
KNOR 182240Z 18013G18KT 31/10 A2956 RMK A01 T03100099  RH  028%=      5-min Rain = 0
KNOR 182245Z 18014G20KT 31/10 A2956 RMK A01 T03080097  RH  028%=      5-min Rain = 0
KNOR 182250Z 18013G20KT 30/10 A2956 RMK A01 T03000096  RH  029%=      5-min Rain = 0
KNOR 182255Z 18014G19KT 30/10 A2956 RMK A01 T03040097  RH  029%=      5-min Rain = 0
KNOR 182300Z 18015G20KT 30/10 A2956 RMK A01 T03030097  RH  029%=      5-min Rain = 0
KNOR 182305Z 18015KT 30/10 A2956 RMK A01 T02970095  RH  029%=      5-min Rain = 0
KNOR 182310Z 18013KT 30/10 A2956 RMK A01 T02970096  RH  030%=      5-min Rain = 0
KNOR 182315Z 18012G17KT 30/10 A2956 RMK A01 T02950098  RH  030%=      5-min Rain = 0
KNOR 182320Z 17011KT 30/10 A2956 RMK A01 T02950099  RH  031%=      5-min Rain = 0
KNOR 182325Z 18012KT 29/10 A2956 RMK A01 T02930099  RH  031%=      5-min Rain = 0
KNOR 182330Z 18011G16KT 29/10 A2956 RMK A01 T02910100  RH  031%=      5-min Rain = 0
KNOR 182335Z 18012KT 29/10 A2956 RMK A01 T02890099  RH  032%=      5-min Rain = 0
KNOR 182340Z 18011G16KT 29/10 A2956 RMK A01 T02870099  RH  032%=      5-min Rain = 0
KNOR 182345Z 18011KT 28/10 A2956 RMK A01 T02840100  RH  033%=      5-min Rain = 0
KNOR 182350Z 18012G17KT 28/10 A2956 RMK A01 T02820100  RH  033%=      5-min Rain = 0
KNOR 182355Z 18012KT 28/10 A2956 RMK A01 T02800101  RH  034%=      5-min Rain = 0
KNOR 190000Z 18010G15KT 28/10 A2956 RMK A01 T02750101  RH  035%=      5-min Rain = 0
KNOR 190005Z 18010KT 27/10 A2956 RMK A01 T02710101  RH  036%=      5-min Rain = 0
KNOR 190010Z 18009KT 27/10 A2956 RMK A01 T02670101  RH  037%=      5-min Rain = 0
KNOR 190015Z 18010KT 27/10 A2956 RMK A01 T02650101  RH  037%=      5-min Rain = 0
KNOR 190020Z 18011KT 26/10 A2956 RMK A01 T02640101  RH  037%=      5-min Rain = 0
KNOR 190025Z 18011KT 26/10 A2956 RMK A01 T02620102  RH  038%=      5-min Rain = 0
KNOR 190030Z 17011KT 26/10 A2956 RMK A01 T02600101  RH  038%=      5-min Rain = 0
KNOR 190035Z 18011KT 26/10 A2957 RMK A01 T02600101  RH  038%=      5-min Rain = 0
KNOR 190040Z 18010KT 26/10 A2957 RMK A01 T02580101  RH  038%=      5-min Rain = 0
KNOR 190045Z 18011KT 26/10 A2957 RMK A01 T02560101  RH  039%=      5-min Rain = 0
KNOR 190050Z 19010KT 25/10 A2957 RMK A01 T02540101  RH  040%=      5-min Rain = 0
KNOR 190055Z 18010KT 25/10 A2957 RMK A01 T02520101  RH  040%=      5-min Rain = 0
KNOR 190100Z 18010KT 25/10 A2957 RMK A01 T02530101  RH  040%=      5-min Rain = 0
KNOR 190105Z 18010KT 25/10 A2957 RMK A01 T02510101  RH  040%=      5-min Rain = 0
KNOR 190110Z 18010KT 25/10 A2957 RMK A01 T02490101  RH  041%=      5-min Rain = 0
KNOR 190115Z 18010KT 25/10 A2957 RMK A01 T02480101  RH  041%=      5-min Rain = 0
KNOR 190120Z 18010KT 25/10 A2957 RMK A01 T02480102  RH  041%=      5-min Rain = 0
KNOR 190125Z 18010KT 25/10 A2957 RMK A01 T02470102  RH  041%=      5-min Rain = 0
KNOR 190130Z 18010KT 25/10 A2957 RMK A01 T02460102  RH  041%=      5-min Rain = 0
KNOR 190135Z 18010KT 25/10 A2957 RMK A01 T02450102  RH  042%=      5-min Rain = 0
KNOR 190140Z 18010KT 25/10 A2958 RMK A01 T02450102  RH  042%=      5-min Rain = 0
KNOR 190145Z 18010KT 24/10 A2958 RMK A01 T02430102  RH  042%=      5-min Rain = 0
KNOR 190150Z 18009KT 24/10 A2958 RMK A01 T02420102  RH  043%=      5-min Rain = 0
KNOR 190155Z 21005KT 24/10 A2958 RMK A01 T02400103  RH  043%=      5-min Rain = 0
KNOR 190200Z 28004G9KT 24/10 A2959 RMK A01 T02350102  RH  044%=      5-min Rain = 0
KNOR 190205Z 24007G12KT 24/10 A2959 RMK A01 T02440095  RH  040%=      5-min Rain = 0
KNOR 190210Z 23003G8KT 24/10 A2959 RMK A01 T02410096  RH  041%=      5-min Rain = 0
KNOR 190215Z 28004KT 24/10 A2959 RMK A01 T02360095  RH  042%=      5-min Rain = 0
KNOR 190220Z 28012KT 23/10 A2961 RMK A01 T02300096  RH  044%=      5-min Rain = 0
KNOR 190225Z 27015G29KT 24/09 A2962 RMK A01 T02360088  RH  040%=      5-min Rain = 0
KNOR 190230Z 27018G26KT 24/09 A2962 RMK A01 T02430094  RH  040%=      5-min Rain = 0
KNOR 190235Z 28021G28KT 24/09 A2962 RMK A01 T02360090  RH  041%=      5-min Rain = 0
KNOR 190240Z 29019G27KT 23/09 A2963 RMK A01 T02310088  RH  041%=      5-min Rain = 0
KNOR 190245Z 28015G22KT 23/09 A2963 RMK A01 T02260090  RH  043%=      5-min Rain = 0
KNOR 190250Z 28015G25KT 22/09 A2963 RMK A01 T02240090  RH  044%=      5-min Rain = 0
KNOR 190255Z 30015G20KT 23/09 A2963 RMK A01 T02280085  RH  041%=      5-min Rain = 0
KNOR 190300Z 29013G20KT 23/08 A2964 RMK A01 T02290083  RH  040%=      5-min Rain = 0
KNOR 190305Z 29012G19KT 23/08 A2964 RMK A01 T02280083  RH  041%=      5-min Rain = 0
KNOR 190310Z 27008KT 22/09 A2964 RMK A01 T02200090  RH  045%=      5-min Rain = 0
KNOR 190315Z 27007KT 21/09 A2964 RMK A01 T02140092  RH  047%=      5-min Rain = 0
KNOR 190320Z 26007KT 21/09 A2964 RMK A01 T02090093  RH  049%=      5-min Rain = 0
KNOR 190325Z 25008KT 21/09 A2965 RMK A01 T02050093  RH  050%=      5-min Rain = 0
KNOR 190330Z 24007KT 20/09 A2965 RMK A01 T02020093  RH  051%=      5-min Rain = 0
KNOR 190335Z 25005KT 20/09 A2965 RMK A01 T02000092  RH  051%=      5-min Rain = 0
KNOR 190340Z 24005KT 20/09 A2965 RMK A01 T01980091  RH  052%=      5-min Rain = 0
KNOR 190345Z 25005KT 20/09 A2965 RMK A01 T01950092  RH  053%=      5-min Rain = 0
KNOR 190350Z 26004KT 20/09 A2965 RMK A01 T01950092  RH  053%=      5-min Rain = 0
KNOR 190355Z 26004KT 20/09 A2965 RMK A01 T01950091  RH  053%=      5-min Rain = 0
KNOR 190400Z 24006KT 19/09 A2965 RMK A01 T01900089  RH  053%=      5-min Rain = 0
KNOR 190405Z 23005KT 19/09 A2965 RMK A01 T01850089  RH  055%=      5-min Rain = 0
KNOR 190410Z 23008KT 18/09 A2965 RMK A01 T01820089  RH  056%=      5-min Rain = 0
KNOR 190415Z 22008KT 18/09 A2966 RMK A01 T01800090  RH  057%=      5-min Rain = 0
KNOR 190420Z 21007KT 18/09 A2966 RMK A01 T01760091  RH  059%=      5-min Rain = 0
KNOR 190425Z 23007KT 17/09 A2966 RMK A01 T01730092  RH  061%=      5-min Rain = 0
KNOR 190430Z 24007KT 18/10 A2966 RMK A01 T01780095  RH  060%=      5-min Rain = 0
KNOR 190435Z 24006KT 18/10 A2966 RMK A01 T01820096  RH  059%=      5-min Rain = 0
KNOR 190440Z 25006KT 18/10 A2965 RMK A01 T01820095  RH  058%=      5-min Rain = 0
KNOR 190445Z 26006KT 18/09 A2965 RMK A01 T01810094  RH  059%=      5-min Rain = 0
KNOR 190450Z 25005KT 18/09 A2965 RMK A01 T01780094  RH  060%=      5-min Rain = 0
KNOR 190455Z 26004KT 17/09 A2965 RMK A01 T01740093  RH  061%=      5-min Rain = 0

Page generated in 0.0283 seconds.